Ashfield, Massachusetts
Current Conditions -  °F | °C
As of 12:52 PM on Sunday 25 Jan 2015 (Local Time) from KAQW Reporting Station
Clear Clear  
Wind Chill: 17°   Ceiling: Unl
Heat Index: 28°   Visibility: 10mi
Dew Point:   Wind: 13mph
Humidity: 38%   Direction: 280°W
Pressure: 29.69"   Gusts: 26mph
Location:  42.53°N, 72.79°W
Report Text: KAQW 251752Z AUTO 28011G23KT 10SM CLR M02/M15 A2969 RMK AO2 SLP064 T10221150 10006 21022 51015
Loading
Personal Weather Stations






























Interactive Weather Map New forecast layout! Learn more

10-Day Weather Forecast

Advertisements
Track Severe Weather on mobile